Progreso, Texas
Current Conditions -  °F | °C
As of 1:15 AM on Saturday 29 Nov 2014 (Local Time) from KT65 Reporting Station
Clear Clear  
Wind Chill: 60°   Ceiling: Unl
Heat Index: 60°   Visibility: 10mi
Dew Point: 56°   Wind: 5mph
Humidity: 89%   Direction: 160°SSE
Pressure: 30.12"   Gusts: NA
Location:  26.09°N, 97.96°W
Report Text: KT65 290715Z AUTO 16004KT 10SM CLR 15/14 A3012 RMK AO2 T01540136
Loading
Personal Weather Stations






























Interactive Weather Map New forecast layout! Learn more

10-Day Weather Forecast

Advertisements
Track Severe Weather on mobile